Time;durP1;ratioP1;P1;durP2;ratioP2;P2;SDS_P1;SDS_P2;PMS_P1;PMS_P2;Temp;Humidity;BMP_temperature;BMP_pressure;BME280_temperature;BME280_humidity;BME280_pressure;Samples;Min_cycle;Max_cycle;Signal;HPM_P1;HPM_P2
2022/08/04 00:01:09;;;;;;;6.75;3.80;;;;;;;;;;4973234;28;20209;-75
2022/08/04 00:03:43;;;;;;;6.80;4.38;;;;;;;;;;4971057;28;20313;-73
2022/08/04 00:06:15;;;;;;;5.30;4.13;;;;;;;;;;4971024;28;20202;-74
2022/08/04 00:08:45;;;;;;;8.48;4.20;;;;;;;;;;4974996;28;20226;-74
2022/08/04 00:11:15;;;;;;;6.65;4.22;;;;;;;;;;4972873;28;20561;-74
2022/08/04 00:13:50;;;;;;;7.75;4.53;;;;;;;;;;4975576;28;20210;-74
2022/08/04 00:16:31;;;;;;;10.45;4.55;;;;;;;;;;4969216;28;20230;-74
2022/08/04 00:19:08;;;;;;;6.78;4.32;;;;;;;;;;4965304;28;20252;-74
2022/08/04 00:21:38;;;;;;;7.65;4.72;;;;;;;;;;4974684;28;20659;-74
2022/08/04 00:24:08;;;;;;;5.57;4.15;;;;;;;;;;4974557;28;20646;-74
2022/08/04 00:26:40;;;;;;;7.80;4.40;;;;;;;;;;4970051;28;20210;-74
2022/08/04 00:29:10;;;;;;;9.55;4.53;;;;;;;;;;4964812;28;20609;-74
2022/08/04 00:31:42;;;;;;;5.53;3.97;;;;;;;;;;4975025;28;20210;-74
2022/08/04 00:34:25;;;;;;;5.60;4.10;;;;;;;;;;4971495;28;20206;-74
2022/08/04 00:36:54;;;;;;;4.55;3.55;;;;;;;;;;4971240;28;20258;-74
2022/08/04 00:39:23;;;;;;;5.80;3.80;;;;;;;;;;4967777;28;20211;-74
2022/08/04 00:42:10;;;;;;;7.55;4.25;;;;;;;;;;4968417;28;20216;-74
2022/08/04 00:44:46;;;;;;;8.40;4.55;;;;;;;;;;4969645;28;20263;-74
2022/08/04 00:47:20;;;;;;;9.32;4.22;;;;;;;;;;4974467;28;20202;-74
2022/08/04 00:49:58;;;;;;;9.63;4.82;;;;;;;;;;4974797;28;20225;-74
2022/08/04 00:52:34;;;;;;;5.10;4.10;;;;;;;;;;4975290;28;20213;-74
2022/08/04 00:55:06;;;;;;;9.88;4.80;;;;;;;;;;4978121;28;20685;-74
2022/08/04 00:57:43;;;;;;;7.55;4.68;;;;;;;;;;4969416;28;20241;-74
2022/08/04 01:00:13;;;;;;;8.60;4.53;;;;;;;;;;4973084;28;20214;-74
2022/08/04 01:02:49;;;;;;;5.78;4.20;;;;;;;;;;4973118;28;20201;-73
2022/08/04 01:05:21;;;;;;;6.07;4.03;;;;;;;;;;4974585;28;20264;-74
2022/08/04 01:08:04;;;;;;;4.85;4.28;;;;;;;;;;4974944;28;20234;-74
2022/08/04 01:10:47;;;;;;;9.13;4.65;;;;;;;;;;4962002;28;20597;-74
2022/08/04 01:13:27;;;;;;;8.85;4.40;;;;;;;;;;4974524;28;20202;-74
2022/08/04 01:16:00;;;;;;;8.15;4.53;;;;;;;;;;4972679;28;20214;-74
2022/08/04 01:18:34;;;;;;;7.05;4.65;;;;;;;;;;4974364;28;20272;-74
2022/08/04 01:21:06;;;;;;;7.72;4.75;;;;;;;;;;4974800;28;20202;-74
2022/08/04 01:23:53;;;;;;;9.57;5.55;;;;;;;;;;4975479;28;20655;-74
2022/08/04 01:26:31;;;;;;;6.90;4.65;;;;;;;;;;4969037;28;20273;-74
2022/08/04 01:29:23;;;;;;;6.40;4.60;;;;;;;;;;4973338;28;20675;-74
2022/08/04 01:32:00;;;;;;;6.43;4.45;;;;;;;;;;4974381;28;20639;-74
2022/08/04 01:34:30;;;;;;;8.45;4.65;;;;;;;;;;4974564;28;20261;-74
2022/08/04 01:37:00;;;;;;;6.22;4.30;;;;;;;;;;4959674;28;20213;-74
2022/08/04 01:39:42;;;;;;;5.85;4.57;;;;;;;;;;4977812;28;20194;-74
2022/08/04 01:42:11;;;;;;;5.22;4.70;;;;;;;;;;4978551;28;20260;-74
2022/08/04 01:45:01;;;;;;;5.80;4.80;;;;;;;;;;4977075;28;20237;-74
2022/08/04 01:47:31;;;;;;;7.75;4.70;;;;;;;;;;4974373;28;20233;-74
2022/08/04 01:50:04;;;;;;;7.63;4.25;;;;;;;;;;4969403;28;20753;-74
2022/08/04 01:52:34;;;;;;;7.30;5.07;;;;;;;;;;4978936;28;20194;-74
2022/08/04 01:55:04;;;;;;;8.07;5.28;;;;;;;;;;4977545;28;20217;-74
2022/08/04 01:57:34;;;;;;;9.50;4.85;;;;;;;;;;4978104;28;20260;-74
2022/08/04 02:00:08;;;;;;;5.97;5.20;;;;;;;;;;4977372;28;20297;-74
2022/08/04 02:02:37;;;;;;;7.32;4.75;;;;;;;;;;4959959;28;20195;-74
2022/08/04 02:05:06;;;;;;;7.57;5.40;;;;;;;;;;4974031;28;20237;-74
2022/08/04 02:07:53;;;;;;;10.13;5.88;;;;;;;;;;4977634;28;20226;-74
2022/08/04 02:10:27;;;;;;;7.30;5.18;;;;;;;;;;4977300;28;20221;-74
2022/08/04 02:13:02;;;;;;;9.65;5.40;;;;;;;;;;4976813;28;20201;-74
2022/08/04 02:15:40;;;;;;;6.82;5.78;;;;;;;;;;4975535;28;20216;-74
2022/08/04 02:18:12;;;;;;;8.60;5.18;;;;;;;;;;4977088;28;20229;-74
2022/08/04 02:20:44;;;;;;;6.80;5.50;;;;;;;;;;4958777;28;20261;-74
2022/08/04 02:23:15;;;;;;;5.85;5.10;;;;;;;;;;4961659;28;20198;-74
2022/08/04 02:25:46;;;;;;;6.93;5.00;;;;;;;;;;4977508;28;20222;-74
2022/08/04 02:28:23;;;;;;;6.55;4.70;;;;;;;;;;4977216;28;20646;-74
2022/08/04 02:30:57;;;;;;;8.95;5.20;;;;;;;;;;4965062;28;20217;-74
2022/08/04 02:33:30;;;;;;;7.25;5.50;;;;;;;;;;4976756;28;20919;-74
2022/08/04 02:36:00;;;;;;;8.45;4.55;;;;;;;;;;4973917;28;20284;-74
2022/08/04 02:38:37;;;;;;;7.50;4.70;;;;;;;;;;4977226;28;20237;-74
2022/08/04 02:41:06;;;;;;;8.80;4.93;;;;;;;;;;4977450;28;20198;-74
2022/08/04 02:43:36;;;;;;;7.45;4.78;;;;;;;;;;4975262;28;20251;-74
2022/08/04 02:46:21;;;;;;;5.70;4.60;;;;;;;;;;4975819;28;20209;-74
2022/08/04 02:48:51;;;;;;;8.00;4.85;;;;;;;;;;4966199;28;20229;-74
2022/08/04 02:51:22;;;;;;;9.15;4.90;;;;;;;;;;4986173;28;20229;-74
2022/08/04 02:53:53;;;;;;;8.88;5.05;;;;;;;;;;4976787;28;20214;-74
2022/08/04 02:56:22;;;;;;;5.43;4.45;;;;;;;;;;4976021;28;20202;-74
2022/08/04 02:58:52;;;;;;;8.27;4.97;;;;;;;;;;4974957;28;20289;-74
2022/08/04 03:01:23;;;;;;;7.97;4.90;;;;;;;;;;4976254;28;20208;-74
2022/08/04 03:03:58;;;;;;;6.28;4.53;;;;;;;;;;4976134;28;20225;-74
2022/08/04 03:06:49;;;;;;;6.97;5.10;;;;;;;;;;4973790;28;20193;-75
2022/08/04 03:09:26;;;;;;;6.53;4.53;;;;;;;;;;4976562;28;20230;-74
2022/08/04 03:12:16;;;;;;;7.72;5.07;;;;;;;;;;4957927;28;20222;-74
2022/08/04 03:14:53;;;;;;;6.43;4.93;;;;;;;;;;4969515;28;20201;-74
2022/08/04 03:17:39;;;;;;;6.97;5.18;;;;;;;;;;4977248;28;20229;-74
2022/08/04 03:20:45;;;;;;;6.22;5.13;;;;;;;;;;4975045;28;20201;-74
2022/08/04 03:23:22;;;;;;;8.32;4.78;;;;;;;;;;4976234;28;20218;-74
2022/08/04 03:26:00;;;;;;;8.02;5.03;;;;;;;;;;4974492;28;20236;-74
2022/08/04 03:28:59;;;;;;;7.07;4.50;;;;;;;;;;4975673;28;20685;-74
2022/08/04 03:31:48;;;;;;;5.93;4.70;;;;;;;;;;4968601;28;20236;-74
2022/08/04 03:34:28;;;;;;;8.48;5.53;;;;;;;;;;4968875;28;20207;-75
2022/08/04 03:37:15;;;;;;;7.18;4.80;;;;;;;;;;4974452;28;20217;-74
2022/08/04 03:40:01;;;;;;;9.13;4.75;;;;;;;;;;4969934;28;20709;-74
2022/08/04 03:43:09;;;;;;;6.50;5.00;;;;;;;;;;4975132;28;20210;-74
2022/08/04 03:46:15;;;;;;;8.02;5.28;;;;;;;;;;4963293;28;20207;-74
2022/08/04 03:48:55;;;;;;;9.85;5.47;;;;;;;;;;4966016;28;20226;-74
2022/08/04 03:54:35;;;;;;;6.20;5.07;;;;;;;;;;4975785;28;20264;-74
2022/08/04 03:57:16;;;;;;;7.47;5.38;;;;;;;;;;4975659;28;20286;-74
2022/08/04 03:59:58;;;;;;;6.68;4.50;;;;;;;;;;4971961;28;20214;-73
2022/08/04 04:02:44;;;;;;;8.40;5.63;;;;;;;;;;4972687;28;20206;-73
2022/08/04 04:05:27;;;;;;;6.60;5.35;;;;;;;;;;4972561;28;20214;-73
2022/08/04 04:08:17;;;;;;;8.05;5.80;;;;;;;;;;4975729;28;20332;-74
2022/08/04 04:11:16;;;;;;;8.98;5.68;;;;;;;;;;4962348;28;20222;-73
2022/08/04 04:13:51;;;;;;;8.68;5.35;;;;;;;;;;4975210;28;20205;-73
2022/08/04 04:16:29;;;;;;;10.05;5.72;;;;;;;;;;4974604;28;20201;-73
2022/08/04 04:19:14;;;;;;;7.55;5.53;;;;;;;;;;4973657;28;20221;-73
2022/08/04 04:22:00;;;;;;;8.40;5.55;;;;;;;;;;4969525;28;20245;-73
2022/08/04 04:24:39;;;;;;;8.88;4.95;;;;;;;;;;4968876;28;20206;-73
2022/08/04 04:27:10;;;;;;;7.57;5.53;;;;;;;;;;4974816;28;20696;-73
2022/08/04 04:29:53;;;;;;;9.02;5.57;;;;;;;;;;4976555;28;20247;-73
2022/08/04 04:32:24;;;;;;;8.05;5.00;;;;;;;;;;4974396;28;20210;-73
2022/08/04 04:35:02;;;;;;;9.82;5.32;;;;;;;;;;4975051;28;20276;-73
2022/08/04 04:37:37;;;;;;;10.13;5.72;;;;;;;;;;4973250;28;20225;-73
2022/08/04 04:40:21;;;;;;;8.48;5.03;;;;;;;;;;4975080;28;20693;-74
2022/08/04 04:43:03;;;;;;;9.93;5.72;;;;;;;;;;4956268;29;20214;-74
2022/08/04 04:45:34;;;;;;;10.18;5.88;;;;;;;;;;4972160;28;20206;-74
2022/08/04 04:48:07;;;;;;;9.43;6.00;;;;;;;;;;4975174;28;20230;-74
2022/08/04 04:50:52;;;;;;;10.00;6.25;;;;;;;;;;4979159;28;20295;-74
2022/08/04 04:53:24;;;;;;;9.63;6.40;;;;;;;;;;4973616;28;20268;-73
2022/08/04 04:55:57;;;;;;;10.20;6.53;;;;;;;;;;4974728;28;20205;-73
2022/08/04 04:58:26;;;;;;;7.72;6.20;;;;;;;;;;4974273;28;20233;-73
2022/08/04 05:01:01;;;;;;;9.20;6.60;;;;;;;;;;4974463;28;20209;-73
2022/08/04 05:03:40;;;;;;;7.70;5.65;;;;;;;;;;4975052;28;20205;-74
2022/08/04 05:06:11;;;;;;;7.47;5.90;;;;;;;;;;4973330;28;20677;-74
2022/08/04 05:08:57;;;;;;;7.63;6.50;;;;;;;;;;4975732;28;20225;-74
2022/08/04 05:11:41;;;;;;;9.50;6.43;;;;;;;;;;4975756;28;20228;-74
2022/08/04 05:14:12;;;;;;;9.93;6.43;;;;;;;;;;4973196;28;20236;-74
2022/08/04 05:17:03;;;;;;;9.70;6.60;;;;;;;;;;4978369;28;20209;-74
2022/08/04 05:19:38;;;;;;;9.68;5.70;;;;;;;;;;4972559;28;20305;-74
2022/08/04 05:22:09;;;;;;;8.80;5.93;;;;;;;;;;4978740;28;20202;-73
2022/08/04 05:24:43;;;;;;;8.55;6.40;;;;;;;;;;4977451;28;20205;-73
2022/08/04 05:27:15;;;;;;;8.73;6.22;;;;;;;;;;4977950;28;20201;-74
2022/08/04 05:29:47;;;;;;;8.13;6.10;;;;;;;;;;4977627;28;20202;-74
2022/08/04 05:32:16;;;;;;;8.52;5.68;;;;;;;;;;4978188;28;20225;-73
2022/08/04 05:34:48;;;;;;;7.65;5.68;;;;;;;;;;4977535;28;20237;-74
2022/08/04 05:37:19;;;;;;;6.88;6.00;;;;;;;;;;4976780;28;20726;-74
2022/08/04 05:39:50;;;;;;;9.98;6.35;;;;;;;;;;4975748;28;20201;-73
2022/08/04 05:42:20;;;;;;;9.70;5.78;;;;;;;;;;4976692;28;20742;-74
2022/08/04 05:44:50;;;;;;;8.23;5.03;;;;;;;;;;4974301;28;20206;-74
2022/08/04 05:47:20;;;;;;;8.50;5.40;;;;;;;;;;4976712;28;20230;-73
2022/08/04 05:49:50;;;;;;;7.75;5.95;;;;;;;;;;4971285;28;20579;-73
2022/08/04 05:52:30;;;;;;;9.60;5.18;;;;;;;;;;4973071;28;20225;-74
2022/08/04 05:55:00;;;;;;;7.93;5.53;;;;;;;;;;4974171;28;20625;-74
2022/08/04 05:57:30;;;;;;;10.40;5.57;;;;;;;;;;4970466;28;20226;-74
2022/08/04 06:00:00;;;;;;;8.00;5.30;;;;;;;;;;4972505;28;20202;-74
2022/08/04 06:02:50;;;;;;;7.80;4.88;;;;;;;;;;4969933;28;20202;-74
2022/08/04 06:05:19;;;;;;;8.30;4.90;;;;;;;;;;4968986;28;20260;-74
2022/08/04 06:07:48;;;;;;;5.65;4.15;;;;;;;;;;4961310;28;20226;-73
2022/08/04 06:10:38;;;;;;;7.53;4.40;;;;;;;;;;4965509;28;20249;-74
2022/08/04 06:13:10;;;;;;;9.38;4.60;;;;;;;;;;4974089;28;20222;-74
2022/08/04 06:16:00;;;;;;;7.95;4.40;;;;;;;;;;4968152;28;20206;-73
2022/08/04 06:18:29;;;;;;;7.40;4.80;;;;;;;;;;4974606;28;20233;-73
2022/08/04 06:21:19;;;;;;;8.57;3.92;;;;;;;;;;4974377;28;20233;-74
2022/08/04 06:23:49;;;;;;;7.93;4.00;;;;;;;;;;4973820;28;20205;-74
2022/08/04 06:26:28;;;;;;;7.60;4.30;;;;;;;;;;4970429;28;20201;-74
2022/08/04 06:28:58;;;;;;;8.50;4.20;;;;;;;;;;4971494;28;20601;-73
2022/08/04 06:31:45;;;;;;;8.50;3.85;;;;;;;;;;4974071;28;20340;-74
2022/08/04 06:34:34;;;;;;;5.85;4.07;;;;;;;;;;4972917;28;20315;-73
2022/08/04 06:37:02;;;;;;;6.18;3.80;;;;;;;;;;4972752;28;20252;-73
2022/08/04 06:39:33;;;;;;;6.57;3.45;;;;;;;;;;4967804;28;20234;-73
2022/08/04 06:42:02;;;;;;;7.53;3.50;;;;;;;;;;4972099;28;20249;-73
2022/08/04 06:44:52;;;;;;;5.95;3.40;;;;;;;;;;4970678;28;20217;-73
2022/08/04 06:47:21;;;;;;;6.18;3.28;;;;;;;;;;4971778;28;20703;-74
2022/08/04 06:49:50;;;;;;;7.30;3.20;;;;;;;;;;4968675;28;20732;-74
2022/08/04 06:52:39;;;;;;;7.43;3.13;;;;;;;;;;4972779;28;20720;-73
2022/08/04 06:55:08;;;;;;;5.88;3.10;;;;;;;;;;4973497;28;20601;-73
2022/08/04 06:57:37;;;;;;;7.60;3.33;;;;;;;;;;4977472;28;20233;-73
2022/08/04 07:00:09;;;;;;;5.80;2.80;;;;;;;;;;4972329;28;20260;-74
2022/08/04 07:02:40;;;;;;;6.65;2.67;;;;;;;;;;4974926;28;20206;-73
2022/08/04 07:05:09;;;;;;;6.72;3.20;;;;;;;;;;4975905;28;20217;-74
2022/08/04 07:07:39;;;;;;;5.15;2.67;;;;;;;;;;4968135;28;20277;-74
2022/08/04 07:10:26;;;;;;;6.45;2.78;;;;;;;;;;4974443;28;20206;-73
2022/08/04 07:12:55;;;;;;;6.50;2.40;;;;;;;;;;4975511;28;20233;-74
2022/08/04 07:15:26;;;;;;;8.88;2.80;;;;;;;;;;4971638;28;20202;-73
2022/08/04 07:17:58;;;;;;;7.07;2.65;;;;;;;;;;4975985;28;20218;-74
2022/08/04 07:20:28;;;;;;;10.15;2.90;;;;;;;;;;4973990;28;20253;-74
2022/08/04 07:23:03;;;;;;;5.90;3.10;;;;;;;;;;4973968;28;20264;-74
2022/08/04 07:25:32;;;;;;;5.72;2.70;;;;;;;;;;4975724;28;20213;-74
2022/08/04 07:28:21;;;;;;;5.93;3.08;;;;;;;;;;4970899;28;20272;-73
2022/08/04 07:30:53;;;;;;;6.38;2.22;;;;;;;;;;4960066;28;20265;-73
2022/08/04 07:36:05;;;;;;;5.20;2.45;;;;;;;;;;4960196;28;20214;-74
2022/08/04 07:38:38;;;;;;;4.30;2.67;;;;;;;;;;4974957;28;20245;-73
2022/08/04 07:41:23;;;;;;;5.78;2.45;;;;;;;;;;4969988;28;20699;-74
2022/08/04 07:44:09;;;;;;;4.43;2.42;;;;;;;;;;4974140;28;20212;-73
2022/08/04 07:46:39;;;;;;;5.18;2.40;;;;;;;;;;4975192;28;21100;-73
2022/08/04 07:49:08;;;;;;;6.60;2.30;;;;;;;;;;4975473;28;20234;-74
2022/08/04 07:51:36;;;;;;;6.07;2.40;;;;;;;;;;4971489;28;20583;-74
2022/08/04 07:54:06;;;;;;;6.63;2.75;;;;;;;;;;4964721;28;20668;-73
2022/08/04 07:56:36;;;;;;;3.88;2.47;;;;;;;;;;4974619;28;20220;-74
2022/08/04 07:59:05;;;;;;;2.92;2.58;;;;;;;;;;4971894;28;20618;-73
2022/08/04 08:01:35;;;;;;;3.15;2.30;;;;;;;;;;4973039;28;20264;-74
2022/08/04 08:04:07;;;;;;;6.20;2.60;;;;;;;;;;4966462;28;20210;-73
2022/08/04 08:06:39;;;;;;;2.88;2.40;;;;;;;;;;4974459;28;20206;-73
2022/08/04 08:09:11;;;;;;;6.80;2.50;;;;;;;;;;4958532;28;20896;-74
2022/08/04 08:11:42;;;;;;;3.10;2.33;;;;;;;;;;4972656;28;20737;-74
2022/08/04 08:14:31;;;;;;;3.55;2.40;;;;;;;;;;4974408;28;20202;-73
2022/08/04 08:17:01;;;;;;;4.95;2.20;;;;;;;;;;4974567;28;20204;-74
2022/08/04 08:19:31;;;;;;;4.13;2.33;;;;;;;;;;4974189;28;20725;-75
2022/08/04 08:22:00;;;;;;;4.30;2.22;;;;;;;;;;4975485;28;20205;-74
2022/08/04 08:24:29;;;;;;;4.82;2.25;;;;;;;;;;4970476;28;20588;-75
2022/08/04 08:26:58;;;;;;;3.38;2.35;;;;;;;;;;4979661;28;20291;-73
2022/08/04 08:29:28;;;;;;;4.65;2.30;;;;;;;;;;4974106;28;20194;-73
2022/08/04 08:31:57;;;;;;;2.80;2.20;;;;;;;;;;4974197;28;20217;-73
2022/08/04 08:34:36;;;;;;;3.47;2.35;;;;;;;;;;4969428;28;20295;-73
2022/08/04 08:37:07;;;;;;;6.82;2.20;;;;;;;;;;4974452;28;20208;-73
2022/08/04 08:39:39;;;;;;;5.00;2.05;;;;;;;;;;4973950;28;20197;-73
2022/08/04 08:42:28;;;;;;;2.20;2.00;;;;;;;;;;4969523;28;20666;-74
2022/08/04 08:45:21;;;;;;;3.65;2.40;;;;;;;;;;4968011;28;20253;-73
2022/08/04 08:47:55;;;;;;;2.72;2.40;;;;;;;;;;4935877;28;20798;-73
2022/08/04 08:50:45;;;;;;;2.42;2.10;;;;;;;;;;4972446;28;20666;-73
2022/08/04 08:53:28;;;;;;;2.92;2.50;;;;;;;;;;4973389;28;20216;-73
2022/08/04 08:56:10;;;;;;;4.57;2.50;;;;;;;;;;4973248;28;20233;-73
2022/08/04 08:58:47;;;;;;;2.50;2.30;;;;;;;;;;4971534;28;20264;-73
2022/08/04 09:01:23;;;;;;;5.75;2.13;;;;;;;;;;4965211;28;20206;-73
2022/08/04 09:04:00;;;;;;;3.38;2.55;;;;;;;;;;4971705;28;20233;-73
2022/08/04 09:06:54;;;;;;;2.50;2.30;;;;;;;;;;4972557;28;20228;-73
2022/08/04 09:09:30;;;;;;;3.47;2.10;;;;;;;;;;4967222;28;20230;-73
2022/08/04 09:12:07;;;;;;;2.30;2.15;;;;;;;;;;4974078;28;20225;-73
2022/08/04 09:14:39;;;;;;;2.70;2.30;;;;;;;;;;4970190;28;20230;-73
2022/08/04 09:17:14;;;;;;;2.70;2.15;;;;;;;;;;4965760;28;20211;-73
2022/08/04 09:19:45;;;;;;;2.85;2.30;;;;;;;;;;4971935;28;20370;-73
2022/08/04 09:22:20;;;;;;;4.55;2.35;;;;;;;;;;4971822;28;20198;-74
2022/08/04 09:24:51;;;;;;;4.88;2.22;;;;;;;;;;4973645;28;20693;-73
2022/08/04 09:27:21;;;;;;;3.70;2.35;;;;;;;;;;4961812;28;20226;-73
2022/08/04 09:29:53;;;;;;;2.83;2.20;;;;;;;;;;4961545;28;20205;-73
2022/08/04 09:32:28;;;;;;;2.45;2.25;;;;;;;;;;4971927;28;20204;-73
2022/08/04 09:35:13;;;;;;;2.78;2.30;;;;;;;;;;4970365;28;20208;-74
2022/08/04 09:37:47;;;;;;;2.60;2.17;;;;;;;;;;4970939;28;20240;-73
2022/08/04 09:40:20;;;;;;;3.00;2.28;;;;;;;;;;4970458;28;20213;-73
2022/08/04 09:43:12;;;;;;;2.58;2.13;;;;;;;;;;4972408;28;20618;-74
2022/08/04 09:45:46;;;;;;;2.95;2.22;;;;;;;;;;4969094;28;20209;-73
2022/08/04 09:48:20;;;;;;;3.25;2.38;;;;;;;;;;4972887;28;20308;-73
2022/08/04 09:50:51;;;;;;;2.60;2.40;;;;;;;;;;4972844;28;20210;-74
2022/08/04 09:53:31;;;;;;;4.30;2.17;;;;;;;;;;4973268;28;20713;-73
2022/08/04 09:56:04;;;;;;;3.20;2.58;;;;;;;;;;4975810;28;20263;-74
2022/08/04 09:58:41;;;;;;;4.53;2.30;;;;;;;;;;4973575;28;20593;-73
2022/08/04 10:01:10;;;;;;;2.63;2.42;;;;;;;;;;4976999;28;20209;-73
2022/08/04 10:03:39;;;;;;;2.58;2.33;;;;;;;;;;4975672;28;20284;-74
2022/08/04 10:06:16;;;;;;;5.35;2.53;;;;;;;;;;4975243;28;20210;-75
2022/08/04 10:09:00;;;;;;;4.10;2.47;;;;;;;;;;4972286;28;20222;-73
2022/08/04 10:11:38;;;;;;;2.72;2.53;;;;;;;;;;4965174;28;20202;-73
2022/08/04 10:14:34;;;;;;;5.38;2.63;;;;;;;;;;4974843;28;20682;-74
2022/08/04 10:17:08;;;;;;;2.70;2.50;;;;;;;;;;4969957;28;20219;-75
2022/08/04 10:19:38;;;;;;;4.15;2.28;;;;;;;;;;4973433;28;20260;-74
2022/08/04 10:22:12;;;;;;;3.10;2.40;;;;;;;;;;4976446;28;20206;-74
2022/08/04 10:25:04;;;;;;;2.40;2.20;;;;;;;;;;4976241;28;20198;-73
2022/08/04 10:27:55;;;;;;;3.92;2.40;;;;;;;;;;4962802;28;20226;-73
2022/08/04 10:30:25;;;;;;;4.07;2.33;;;;;;;;;;4971076;28;20217;-73
2022/08/04 10:32:56;;;;;;;2.65;2.20;;;;;;;;;;4975949;28;20210;-74
2022/08/04 10:35:26;;;;;;;3.78;2.45;;;;;;;;;;4976516;28;20222;-73
2022/08/04 10:38:01;;;;;;;2.40;2.20;;;;;;;;;;4967211;28;20262;-74
2022/08/04 10:40:39;;;;;;;3.05;2.40;;;;;;;;;;4974733;28;20198;-73
2022/08/04 10:43:12;;;;;;;2.33;1.98;;;;;;;;;;4976326;28;20260;-74
2022/08/04 10:45:52;;;;;;;2.30;2.10;;;;;;;;;;4975297;28;20209;-72
2022/08/04 10:48:29;;;;;;;2.45;1.80;;;;;;;;;;4970931;28;20272;-72
2022/08/04 10:51:04;;;;;;;3.38;1.98;;;;;;;;;;4976323;28;20588;-74
2022/08/04 10:53:48;;;;;;;3.83;2.35;;;;;;;;;;4981413;28;20838;-76
2022/08/04 10:56:20;;;;;;;2.90;2.10;;;;;;;;;;4976570;28;20213;-76
2022/08/04 11:01:41;;;;;;;3.70;2.10;;;;;;;;;;4957483;28;20625;-77
2022/08/04 11:04:38;;;;;;;2.28;2.08;;;;;;;;;;4956947;28;20671;-77
2022/08/04 11:07:07;;;;;;;4.40;2.35;;;;;;;;;;4956258;28;20195;-77
2022/08/04 11:09:36;;;;;;;2.58;2.00;;;;;;;;;;4957100;29;20207;-77
2022/08/04 11:12:07;;;;;;;2.33;2.10;;;;;;;;;;4957189;28;20606;-77
2022/08/04 11:14:40;;;;;;;2.03;1.92;;;;;;;;;;4956831;28;20215;-77
2022/08/04 11:17:12;;;;;;;2.30;2.10;;;;;;;;;;4956667;29;20191;-77
2022/08/04 11:19:43;;;;;;;3.33;2.10;;;;;;;;;;4956170;29;20270;-77
2022/08/04 11:22:24;;;;;;;2.75;1.90;;;;;;;;;;4956305;29;20194;-75
2022/08/04 11:25:12;;;;;;;3.08;2.00;;;;;;;;;;4956140;28;20198;-76
2022/08/04 11:27:44;;;;;;;2.72;2.10;;;;;;;;;;4975739;28;20221;-75
2022/08/04 11:30:16;;;;;;;3.10;2.33;;;;;;;;;;4975188;28;20194;-77
2022/08/04 11:32:47;;;;;;;3.22;2.00;;;;;;;;;;4973408;28;20248;-73
2022/08/04 11:35:21;;;;;;;4.75;2.00;;;;;;;;;;4972073;28;20694;-74
2022/08/04 11:37:52;;;;;;;3.65;2.20;;;;;;;;;;4970959;28;20229;-73
2022/08/04 11:40:24;;;;;;;4.63;2.10;;;;;;;;;;4967165;28;20210;-73
2022/08/04 11:46:16;;;;;;;3.67;1.90;;;;;;;;;;4972346;28;20624;-74
2022/08/04 11:48:49;;;;;;;4.15;1.92;;;;;;;;;;4970440;28;20724;-74
2022/08/04 11:51:20;;;;;;;4.18;1.77;;;;;;;;;;4967201;28;20268;-73
2022/08/04 11:54:04;;;;;;;2.10;1.90;;;;;;;;;;4974828;28;20734;-74
2022/08/04 11:56:32;;;;;;;2.63;2.20;;;;;;;;;;4974783;28;20248;-73
2022/08/04 12:02:21;;;;;;;2.17;1.88;;;;;;;;;;4974196;28;20212;-73
2022/08/04 12:04:56;;;;;;;1.73;1.52;;;;;;;;;;4968918;28;20295;-74
2022/08/04 12:07:32;;;;;;;3.13;2.10;;;;;;;;;;4971017;28;20222;-74
2022/08/04 12:10:15;;;;;;;1.90;1.77;;;;;;;;;;4973065;28;20228;-74
2022/08/04 12:13:18;;;;;;;4.25;1.90;;;;;;;;;;4972392;28;20216;-75
2022/08/04 12:15:54;;;;;;;4.28;1.90;;;;;;;;;;4973856;28;20236;-74
2022/08/04 12:18:28;;;;;;;2.13;1.83;;;;;;;;;;4973932;28;20320;-74
2022/08/04 12:21:01;;;;;;;2.83;1.80;;;;;;;;;;4972704;28;20566;-73
2022/08/04 12:23:34;;;;;;;2.42;1.80;;;;;;;;;;4964041;28;20318;-73
2022/08/04 12:26:07;;;;;;;3.05;1.98;;;;;;;;;;4962032;28;20653;-73
2022/08/04 12:28:41;;;;;;;4.55;1.92;;;;;;;;;;4978458;28;20229;-73
2022/08/04 12:31:31;;;;;;;4.60;2.22;;;;;;;;;;4969804;28;20655;-73
2022/08/04 12:34:04;;;;;;;4.13;2.10;;;;;;;;;;4968334;28;20213;-73
2022/08/04 12:36:37;;;;;;;2.92;1.73;;;;;;;;;;4973243;28;20221;-73
2022/08/04 12:39:10;;;;;;;2.08;1.90;;;;;;;;;;4974162;28;20319;-74
2022/08/04 12:41:41;;;;;;;3.35;1.92;;;;;;;;;;4972439;28;20721;-74
2022/08/04 12:44:13;;;;;;;5.65;2.17;;;;;;;;;;4975181;28;20206;-74
2022/08/04 12:47:07;;;;;;;3.63;2.13;;;;;;;;;;4971561;28;20336;-75
2022/08/04 12:50:09;;;;;;;;;;;;;;;;;;;;;
2022/08/04 12:52:43;;;;;;;2.05;1.90;;;;;;;;;;4965314;28;20238;-74
2022/08/04 12:55:30;;;;;;;4.38;1.80;;;;;;;;;;4970925;28;20236;-73
2022/08/04 12:58:02;;;;;;;4.18;1.70;;;;;;;;;;4973519;28;20229;-73
2022/08/04 13:00:37;;;;;;;4.65;1.80;;;;;;;;;;4624861;28;10000387;-75
2022/08/04 13:03:12;;;;;;;2.33;1.90;;;;;;;;;;4988554;28;20241;-78
2022/08/04 13:05:43;;;;;;;5.32;2.03;;;;;;;;;;4954119;29;20222;-78
2022/08/04 13:08:14;;;;;;;2.40;1.60;;;;;;;;;;4954644;28;20230;-76
2022/08/04 13:10:54;;;;;;;4.10;1.77;;;;;;;;;;4969865;28;20209;-78
2022/08/04 13:13:25;;;;;;;6.68;1.90;;;;;;;;;;4973801;28;20201;-78
2022/08/04 13:15:57;;;;;;;3.00;2.00;;;;;;;;;;4973396;28;20210;-75
2022/08/04 13:18:27;;;;;;;3.90;2.00;;;;;;;;;;4972929;28;20225;-76
2022/08/04 13:21:10;;;;;;;2.45;1.60;;;;;;;;;;4973355;28;20711;-76
2022/08/04 13:23:51;;;;;;;1.88;1.50;;;;;;;;;;4953163;29;20590;-74
2022/08/04 13:26:48;;;;;;;2.10;1.60;;;;;;;;;;4964960;28;20265;-75
2022/08/04 13:29:35;;;;;;;3.08;1.70;;;;;;;;;;4970260;28;20229;-75
2022/08/04 13:32:29;;;;;;;2.42;1.50;;;;;;;;;;4973714;28;20664;-74
2022/08/04 13:35:12;;;;;;;1.63;1.52;;;;;;;;;;4965695;28;20236;-74
2022/08/04 13:38:14;;;;;;;1.73;1.58;;;;;;;;;;4968099;28;20228;-74
2022/08/04 13:40:44;;;;;;;2.05;1.80;;;;;;;;;;4975451;28;20234;-74
2022/08/04 13:43:23;;;;;;;3.63;1.70;;;;;;;;;;4962572;28;20569;-78
2022/08/04 13:46:14;;;;;;;3.08;2.10;;;;;;;;;;4957659;28;20679;-77
2022/08/04 13:48:57;;;;;;;1.85;1.40;;;;;;;;;;4956837;28;20233;-77
2022/08/04 13:51:59;;;;;;;2.35;1.60;;;;;;;;;;4956786;29;20250;-76
2022/08/04 13:54:35;;;;;;;2.60;1.60;;;;;;;;;;4956859;28;20728;-77
2022/08/04 13:57:13;;;;;;;3.55;1.40;;;;;;;;;;4956500;29;20261;-77
2022/08/04 13:59:45;;;;;;;2.15;1.50;;;;;;;;;;4957082;28;20191;-77
2022/08/04 14:02:32;;;;;;;2.75;1.48;;;;;;;;;;4956617;29;20683;-76
2022/08/04 14:05:05;;;;;;;1.75;1.50;;;;;;;;;;4956483;28;20237;-78
2022/08/04 14:07:46;;;;;;;2.92;1.58;;;;;;;;;;4956452;28;20230;-78
2022/08/04 14:10:17;;;;;;;2.88;1.50;;;;;;;;;;4956667;28;20217;-77
2022/08/04 14:12:46;;;;;;;4.20;1.67;;;;;;;;;;4956337;28;20573;-77
2022/08/04 14:15:34;;;;;;;3.65;1.60;;;;;;;;;;4956525;29;20710;-76
2022/08/04 14:18:23;;;;;;;2.60;1.60;;;;;;;;;;4957870;28;20269;-77
2022/08/04 14:21:00;;;;;;;3.90;1.63;;;;;;;;;;4957957;28;20214;-77
2022/08/04 14:23:29;;;;;;;2.70;1.60;;;;;;;;;;4958163;28;20558;-77
2022/08/04 14:26:13;;;;;;;2.10;1.70;;;;;;;;;;4957550;29;20198;-77
2022/08/04 14:28:42;;;;;;;2.00;1.80;;;;;;;;;;4957578;28;20234;-77
2022/08/04 14:31:30;;;;;;;3.40;1.90;;;;;;;;;;4957954;29;20214;-77
2022/08/04 14:33:59;;;;;;;1.70;1.60;;;;;;;;;;4957840;28;20210;-77
2022/08/04 14:36:43;;;;;;;6.75;1.90;;;;;;;;;;4957884;28;20214;-77
2022/08/04 14:39:38;;;;;;;5.60;1.90;;;;;;;;;;4957468;29;20206;-76
2022/08/04 14:42:09;;;;;;;3.28;1.85;;;;;;;;;;4956085;28;20210;-77
2022/08/04 14:44:53;;;;;;;5.15;1.90;;;;;;;;;;4957732;29;20195;-77
2022/08/04 14:47:41;;;;;;;12.40;3.28;;;;;;;;;;4956227;28;20226;-76
2022/08/04 14:50:20;;;;;;;17.77;3.42;;;;;;;;;;4957811;29;20608;-75
2022/08/04 14:52:49;;;;;;;10.70;3.47;;;;;;;;;;4957839;28;20202;-75
2022/08/04 14:55:19;;;;;;;13.40;3.60;;;;;;;;;;4957554;28;20214;-75
2022/08/04 14:57:50;;;;;;;7.57;3.00;;;;;;;;;;4958363;29;20227;-75
2022/08/04 15:00:39;;;;;;;8.90;3.05;;;;;;;;;;4957550;28;20702;-75
2022/08/04 15:03:09;;;;;;;7.40;2.92;;;;;;;;;;4973381;28;20205;-76
2022/08/04 15:05:38;;;;;;;6.72;2.75;;;;;;;;;;4976216;28;20671;-75
2022/08/04 15:08:30;;;;;;;8.18;2.92;;;;;;;;;;4975794;28;20222;-76
2022/08/04 15:11:03;;;;;;;5.85;2.85;;;;;;;;;;4976662;28;20217;-76
2022/08/04 15:13:33;;;;;;;7.55;3.03;;;;;;;;;;4976137;28;20607;-75
2022/08/04 15:16:02;;;;;;;4.40;2.47;;;;;;;;;;4975172;28;20214;-75
2022/08/04 15:18:38;;;;;;;6.88;2.85;;;;;;;;;;4975121;28;20221;-75
2022/08/04 15:21:07;;;;;;;7.32;2.40;;;;;;;;;;4974691;28;20213;-75
2022/08/04 15:23:36;;;;;;;3.75;2.20;;;;;;;;;;4975177;28;20583;-75
2022/08/04 15:26:08;;;;;;;4.60;2.58;;;;;;;;;;4975451;28;20206;-76
2022/08/04 15:28:40;;;;;;;3.17;2.00;;;;;;;;;;4975628;28;20720;-76
2022/08/04 15:31:10;;;;;;;2.90;2.20;;;;;;;;;;4975397;28;20544;-76
2022/08/04 15:33:59;;;;;;;4.30;2.25;;;;;;;;;;4974612;28;20209;-76
2022/08/04 15:36:45;;;;;;;3.83;2.03;;;;;;;;;;4975395;28;20754;-77
2022/08/04 15:39:32;;;;;;;2.83;2.20;;;;;;;;;;4975436;28;20218;-76
2022/08/04 15:42:07;;;;;;;2.60;2.20;;;;;;;;;;4974842;28;20196;-75
2022/08/04 15:45:03;;;;;;;3.60;2.10;;;;;;;;;;4975550;28;20250;-77
2022/08/04 15:47:31;;;;;;;3.05;2.38;;;;;;;;;;4973696;28;20230;-76
2022/08/04 15:50:08;;;;;;;4.78;2.28;;;;;;;;;;4975225;28;20208;-76
2022/08/04 15:52:55;;;;;;;3.17;2.33;;;;;;;;;;4974243;28;20654;-76
2022/08/04 15:55:38;;;;;;;2.90;2.42;;;;;;;;;;4976348;28;20266;-77